createdAt,value
2022-11-22T00:01:05.617Z,95057.81
2022-11-22T00:03:51.478Z,95061.88
2022-11-22T00:06:37.398Z,95062.69
2022-11-22T00:09:23.246Z,95052.94
2022-11-22T00:12:09.227Z,95057.16
2022-11-22T00:14:56.966Z,95067.63
2022-11-22T00:17:43.108Z,95078.28
2022-11-22T00:20:29.558Z,95050.00
2022-11-22T00:23:16.325Z,95049.44
2022-11-22T00:26:02.178Z,95051.75
2022-11-22T00:28:48.207Z,95065.34
2022-11-22T00:31:34.086Z,95055.72
2022-11-22T00:34:19.984Z,95036.22
2022-11-22T00:37:06.005Z,95040.69
2022-11-22T00:39:52.056Z,95033.72
2022-11-22T00:42:38.165Z,95018.28
2022-11-22T00:45:24.133Z,95019.50
2022-11-22T00:48:10.091Z,95032.06
2022-11-22T00:50:56.386Z,95026.94
2022-11-22T00:53:42.043Z,95037.41
2022-11-22T00:56:27.996Z,95035.91
2022-11-22T00:59:13.993Z,95038.41
2022-11-22T01:01:59.885Z,95027.09
2022-11-22T01:04:45.792Z,95025.25
2022-11-22T01:07:31.630Z,95011.53
2022-11-22T01:10:17.593Z,95019.59
2022-11-22T01:13:04.871Z,94993.03
2022-11-22T01:15:50.797Z,95005.91
2022-11-22T01:18:36.879Z,94980.94
2022-11-22T01:21:23.194Z,94987.81
2022-11-22T01:24:09.790Z,94969.44
2022-11-22T01:26:56.374Z,94980.38
2022-11-22T01:29:42.691Z,94990.38
2022-11-22T01:32:28.802Z,94981.56
2022-11-22T01:35:15.126Z,94987.72
2022-11-22T01:38:01.360Z,94979.91
2022-11-22T01:40:47.406Z,94967.34
2022-11-22T01:43:33.575Z,94968.16
2022-11-22T01:46:32.017Z,94968.22
2022-11-22T01:49:30.994Z,94960.56
2022-11-22T01:52:22.712Z,94960.47
2022-11-22T01:55:11.621Z,94969.91
2022-11-22T01:57:58.414Z,94963.88
2022-11-22T02:00:44.635Z,94965.25
2022-11-22T02:03:32.632Z,94958.47
2022-11-22T02:06:19.891Z,94961.63
2022-11-22T02:09:13.015Z,94965.72
2022-11-22T02:12:01.998Z,94970.03
2022-11-22T02:14:48.944Z,94974.38
2022-11-22T02:17:34.992Z,94967.22
2022-11-22T02:20:20.794Z,94981.78
2022-11-22T02:23:12.630Z,94970.59
2022-11-22T02:26:00.868Z,94986.50
2022-11-22T02:28:47.186Z,94973.66
2022-11-22T02:31:44.746Z,94995.84
2022-11-22T02:34:41.906Z,94987.25
2022-11-22T02:37:31.479Z,94977.22
2022-11-22T02:40:18.387Z,94988.13
2022-11-22T02:43:11.723Z,94966.03
2022-11-22T02:46:04.661Z,94975.03
2022-11-22T02:48:51.136Z,94969.69
2022-11-22T02:51:37.076Z,94965.56
2022-11-22T02:54:23.275Z,94958.84
2022-11-22T02:57:09.326Z,94963.53
2022-11-22T02:59:55.148Z,94954.47
2022-11-22T03:02:41.159Z,94950.69
2022-11-22T03:05:27.254Z,94951.22
2022-11-22T03:08:13.146Z,94950.31
2022-11-22T03:10:59.152Z,94942.13
2022-11-22T03:13:45.237Z,94943.16
2022-11-22T03:16:31.754Z,94951.97
2022-11-22T03:19:17.630Z,94952.97
2022-11-22T03:22:03.451Z,94964.44
2022-11-22T03:24:49.498Z,94958.31
2022-11-22T03:27:35.272Z,94961.78
2022-11-22T03:30:21.320Z,94963.00
2022-11-22T03:33:07.462Z,94954.28
2022-11-22T03:35:59.427Z,94945.81
2022-11-22T03:38:45.377Z,94953.59
2022-11-22T03:41:31.328Z,94954.81
2022-11-22T03:44:17.111Z,94966.28
2022-11-22T03:47:02.938Z,94965.81
2022-11-22T03:49:49.058Z,94961.31
2022-11-22T03:52:34.835Z,94977.31
2022-11-22T03:55:20.890Z,94963.34
2022-11-22T03:58:06.874Z,94960.22
2022-11-22T04:00:52.971Z,94975.47
2022-11-22T04:03:38.947Z,94974.63
2022-11-22T04:06:24.728Z,94978.78
2022-11-22T04:09:10.642Z,94994.94
2022-11-22T04:11:56.425Z,94989.44
2022-11-22T04:15:00.784Z,94984.31
2022-11-22T04:17:48.100Z,94946.44
2022-11-22T04:20:53.137Z,94975.94
2022-11-22T04:23:39.402Z,94974.28
2022-11-22T04:26:25.220Z,94967.94
2022-11-22T04:29:11.209Z,94946.00
2022-11-22T04:32:15.628Z,94946.63
2022-11-22T04:35:01.694Z,94944.16
2022-11-22T04:37:51.787Z,94938.38
2022-11-22T04:40:38.414Z,94950.88
2022-11-22T04:43:44.864Z,94945.19
2022-11-22T04:46:31.555Z,94960.22
2022-11-22T04:49:17.703Z,94947.31
2022-11-22T04:52:23.145Z,94969.03
2022-11-22T04:55:09.452Z,94963.09
2022-11-22T04:57:59.763Z,94945.34
2022-11-22T05:00:46.880Z,94950.41
2022-11-22T05:03:33.015Z,94945.09
2022-11-22T05:06:19.159Z,94949.41
2022-11-22T05:09:05.044Z,94948.75
2022-11-22T05:11:51.374Z,94944.09
2022-11-22T05:14:37.247Z,94951.06
2022-11-22T05:17:23.365Z,94935.09
2022-11-22T05:20:10.093Z,94941.44
2022-11-22T05:23:14.596Z,94936.09
2022-11-22T05:26:00.711Z,94946.75
2022-11-22T05:28:46.750Z,94935.19
2022-11-22T05:31:34.601Z,94923.16
2022-11-22T05:34:20.714Z,94929.31
2022-11-22T05:37:06.730Z,94922.16
2022-11-22T05:39:52.608Z,94930.41
2022-11-22T05:42:38.420Z,94912.88
2022-11-22T05:45:24.386Z,94942.88
2022-11-22T05:48:10.175Z,94924.81
2022-11-22T05:50:56.087Z,94942.41
2022-11-22T05:53:42.876Z,94944.97
2022-11-22T05:56:28.544Z,94942.22
2022-11-22T05:59:14.668Z,94943.63
2022-11-22T06:02:00.552Z,94946.09
2022-11-22T06:04:46.445Z,94952.31
2022-11-22T06:07:32.617Z,94958.66
2022-11-22T06:10:18.474Z,94960.75
2022-11-22T06:13:04.583Z,94956.81
2022-11-22T06:15:50.352Z,94944.31
2022-11-22T06:18:36.679Z,94953.69
2022-11-22T06:32:37.378Z,94925.34
2022-11-22T06:35:23.387Z,94938.47
2022-11-22T06:38:09.239Z,94942.81
2022-11-22T06:41:02.819Z,94939.38
2022-11-22T06:43:49.945Z,94917.78
2022-11-22T06:46:36.420Z,94906.00
2022-11-22T06:49:22.571Z,94921.44
2022-11-22T06:52:08.495Z,94926.63
2022-11-22T06:54:54.283Z,94926.38
2022-11-22T06:57:40.195Z,94934.78
2022-11-22T07:00:26.037Z,94943.97
2022-11-22T07:03:11.917Z,94953.25
2022-11-22T07:05:57.814Z,94936.28
2022-11-22T07:08:44.467Z,94938.59
2022-11-22T07:11:32.060Z,94932.50
2022-11-22T07:14:18.035Z,94941.25
2022-11-22T07:17:03.905Z,94950.94
2022-11-22T07:19:49.842Z,94949.75
2022-11-22T07:22:35.637Z,94934.63
2022-11-22T07:25:21.515Z,94939.47
2022-11-22T07:28:07.474Z,94925.88
2022-11-22T07:30:53.851Z,94924.75
2022-11-22T07:33:40.348Z,94918.09
2022-11-22T07:36:29.420Z,94903.84
2022-11-22T07:39:15.179Z,94911.34
2022-11-22T07:42:00.984Z,94896.13
2022-11-22T07:44:47.090Z,94890.41
2022-11-22T07:47:32.906Z,94895.25
2022-11-22T07:50:18.985Z,94885.03
2022-11-22T07:53:05.298Z,94890.19
2022-11-22T07:55:51.124Z,94887.81
2022-11-22T07:58:37.691Z,94862.06
2022-11-22T08:01:23.827Z,94847.72
2022-11-22T08:04:09.800Z,94831.22
2022-11-22T08:06:55.801Z,94844.50
2022-11-22T08:09:41.644Z,94834.31
2022-11-22T08:12:27.588Z,94826.22
2022-11-22T08:15:15.165Z,94822.72
2022-11-22T08:18:01.198Z,94824.63
2022-11-22T08:20:47.217Z,94816.03
2022-11-22T08:23:33.457Z,94789.94
2022-11-22T08:26:21.091Z,94790.22
2022-11-22T08:29:13.924Z,94774.34
2022-11-22T08:32:00.410Z,94770.25
2022-11-22T08:34:47.496Z,94786.53
2022-11-22T08:37:33.931Z,94777.72
2022-11-22T08:40:20.080Z,94772.13
2022-11-22T08:43:06.075Z,94770.69
2022-11-22T08:45:59.423Z,94762.94
2022-11-22T08:48:46.008Z,94766.22
2022-11-22T08:51:32.979Z,94758.06
2022-11-22T08:54:18.922Z,94764.13
2022-11-22T08:57:04.880Z,94772.00
2022-11-22T08:59:50.975Z,94772.44
2022-11-22T09:02:37.036Z,94765.44
2022-11-22T09:05:23.693Z,94757.66
2022-11-22T09:08:25.025Z,94742.53
2022-11-22T09:11:15.002Z,94742.72
2022-11-22T09:14:01.142Z,94746.66
2022-11-22T09:16:47.365Z,94721.44
2022-11-22T09:19:33.460Z,94713.50
2022-11-22T09:22:21.780Z,94688.06
2022-11-22T09:25:10.179Z,94692.63
2022-11-22T09:28:00.157Z,94674.97
2022-11-22T09:30:46.404Z,94675.22
2022-11-22T09:33:34.139Z,94676.06
2022-11-22T09:36:22.408Z,94664.38
2022-11-22T09:39:09.149Z,94651.03
2022-11-22T09:42:30.894Z,94659.03
2022-11-22T09:45:35.049Z,94665.84
2022-11-22T09:48:47.706Z,94652.09
2022-11-22T09:51:41.127Z,94640.81
2022-11-22T09:54:34.020Z,94657.88
2022-11-22T09:57:24.176Z,94673.69
2022-11-22T10:00:30.780Z,94678.97
2022-11-22T10:03:29.766Z,94673.44
2022-11-22T10:06:32.743Z,94660.06
2022-11-22T10:09:18.690Z,94656.22
2022-11-22T10:12:28.016Z,94646.97
2022-11-22T10:15:39.741Z,94627.25
2022-11-22T10:18:34.744Z,94624.59
2022-11-22T10:21:21.086Z,94633.06
2022-11-22T10:24:13.000Z,94627.53
2022-11-22T10:27:00.316Z,94612.56
2022-11-22T10:30:03.654Z,94599.22
2022-11-22T10:32:57.773Z,94596.31
2022-11-22T10:36:17.476Z,94588.94
2022-11-22T10:39:14.104Z,94581.97
2022-11-22T10:42:06.179Z,94571.06
2022-11-22T10:45:03.553Z,94561.88
2022-11-22T10:47:55.446Z,94562.88
2022-11-22T10:51:00.848Z,94550.75
2022-11-22T10:53:49.971Z,94566.81
2022-11-22T10:57:07.011Z,94555.53
2022-11-22T11:00:14.053Z,94544.41
2022-11-22T11:03:13.474Z,94552.44
2022-11-22T11:06:33.325Z,94547.31
2022-11-22T11:12:57.341Z,94518.97
2022-11-22T11:15:52.736Z,94505.81
2022-11-22T11:18:49.848Z,94479.94
2022-11-22T11:21:36.015Z,94480.34
2022-11-22T11:24:22.000Z,94456.31
2022-11-22T11:27:10.634Z,94458.38
2022-11-22T11:30:04.275Z,94460.59
2022-11-22T11:32:56.860Z,94465.31
2022-11-22T11:35:45.044Z,94460.41
2022-11-22T11:38:43.081Z,94469.66
2022-11-22T11:41:29.185Z,94472.94
2022-11-22T11:44:32.479Z,94458.59
2022-11-22T11:47:21.089Z,94453.44
2022-11-22T11:50:24.012Z,94430.03
2022-11-22T11:53:16.758Z,94449.16
2022-11-22T11:56:20.975Z,94430.88
2022-11-22T11:59:19.741Z,94432.31
2022-11-22T12:02:39.964Z,94436.03
2022-11-22T12:05:31.331Z,94406.22
2022-11-22T12:08:32.811Z,94411.56
2022-11-22T12:11:43.230Z,94409.47
2022-11-22T12:14:48.721Z,94392.66
2022-11-22T12:17:38.657Z,94419.53
2022-11-22T12:20:42.712Z,94431.66
2022-11-22T12:23:36.300Z,94436.56
2022-11-22T12:26:22.411Z,94426.88
2022-11-22T12:29:12.941Z,94432.22
2022-11-22T12:32:03.434Z,94429.16
2022-11-22T12:34:59.164Z,94419.94
2022-11-22T12:37:55.526Z,94405.34
2022-11-22T12:40:48.265Z,94401.22
2022-11-22T12:43:39.983Z,94410.22
2022-11-22T12:46:30.730Z,94403.63
2022-11-22T12:49:22.700Z,94404.09
2022-11-22T12:52:22.789Z,94379.25
2022-11-22T12:55:21.719Z,94408.44
2022-11-22T12:58:17.069Z,94401.59
2022-11-22T13:01:09.344Z,94401.38
2022-11-22T13:04:10.733Z,94391.09
2022-11-22T13:07:15.679Z,94384.16
2022-11-22T13:10:17.239Z,94390.53
2022-11-22T13:13:04.689Z,94381.25
2022-11-22T13:15:52.706Z,94373.03
2022-11-22T13:18:44.074Z,94381.63
2022-11-22T13:21:49.133Z,94373.41
2022-11-22T13:24:47.011Z,94368.06
2022-11-22T13:27:44.700Z,94352.06
2022-11-22T13:30:39.535Z,94349.59
2022-11-22T13:33:26.243Z,94342.00
2022-11-22T13:36:25.348Z,94342.47
2022-11-22T13:39:19.461Z,94360.56
2022-11-22T13:42:06.666Z,94330.19
2022-11-22T13:45:08.312Z,94322.13
2022-11-22T13:47:54.518Z,94301.41
2022-11-22T13:50:40.392Z,94305.91
2022-11-22T13:53:29.073Z,94303.06
2022-11-22T13:56:15.174Z,94311.03
2022-11-22T13:59:18.848Z,94313.75
2022-11-22T14:02:21.756Z,94318.28
2022-11-22T14:05:23.210Z,94309.69
2022-11-22T14:08:27.463Z,94284.47
2022-11-22T14:11:18.092Z,94327.50
2022-11-22T14:14:12.379Z,94334.13
2022-11-22T14:17:41.494Z,94344.84
2022-11-22T14:20:37.302Z,94335.34
2022-11-22T14:23:50.612Z,94334.53
2022-11-22T14:26:54.668Z,94351.59
2022-11-22T14:29:54.024Z,94346.06
2022-11-22T14:32:41.863Z,94351.00
2022-11-22T14:35:32.214Z,94337.19
2022-11-22T14:38:28.454Z,94344.41
2022-11-22T14:41:38.155Z,94338.09
2022-11-22T14:44:32.428Z,94325.38
2022-11-22T14:47:18.364Z,94316.09
2022-11-22T14:50:09.014Z,94299.84
2022-11-22T14:52:58.010Z,94274.38
2022-11-22T14:55:44.684Z,94277.28
2022-11-22T14:58:30.959Z,94261.00
2022-11-22T15:01:56.452Z,94267.81
2022-11-22T15:09:10.958Z,94247.41
2022-11-22T15:09:20.506Z,94226.16
2022-11-22T15:11:58.721Z,94226.38
2022-11-22T15:14:51.216Z,94223.06
2022-11-22T15:59:35.816Z,94107.16
2022-11-22T16:02:25.272Z,94093.31
2022-11-22T16:06:04.716Z,94078.94
2022-11-22T16:08:17.777Z,94095.91
2022-11-22T16:11:04.418Z,94065.19
2022-11-22T16:13:50.520Z,94054.72
2022-11-22T16:16:36.396Z,94049.25
2022-11-22T16:19:24.233Z,94080.16
2022-11-22T16:22:28.423Z,94058.75
2022-11-22T16:25:31.523Z,94073.19
2022-11-22T16:28:26.894Z,94046.50
2022-11-22T16:31:18.257Z,94044.78
2022-11-22T16:34:12.849Z,94041.88
2022-11-22T16:36:59.123Z,94032.25
2022-11-22T16:39:45.279Z,94040.97
2022-11-22T16:42:38.071Z,94038.59
2022-11-22T16:45:24.153Z,94037.91
2022-11-22T16:48:33.041Z,94061.81
2022-11-22T16:51:24.049Z,94054.09
2022-11-22T16:54:14.409Z,94059.31
2022-11-22T16:57:00.269Z,94064.50
2022-11-22T16:59:46.135Z,94056.63
2022-11-22T17:02:32.188Z,94049.06
2022-11-22T17:05:18.290Z,94035.16
2022-11-22T17:08:10.746Z,94035.31
2022-11-22T17:10:56.912Z,94028.06
2022-11-22T17:13:42.908Z,94017.75
2022-11-22T17:16:29.058Z,94004.88
2022-11-22T17:19:52.675Z,94044.63
2022-11-22T17:22:22.912Z,94049.78
2022-11-22T17:25:12.312Z,94058.81
2022-11-22T17:27:58.096Z,94066.13
2022-11-22T17:30:44.146Z,94103.91
2022-11-22T17:33:30.002Z,94134.34
2022-11-22T17:36:22.706Z,94154.88
2022-11-22T17:39:12.510Z,94160.84
2022-11-22T17:41:58.431Z,94173.47
2022-11-22T17:44:44.433Z,94153.56
2022-11-22T17:47:31.018Z,94146.16
2022-11-22T17:50:17.351Z,94159.31
2022-11-22T17:53:03.258Z,94136.34
2022-11-22T17:56:09.345Z,94151.56
2022-11-22T17:58:55.243Z,94165.78
2022-11-22T18:01:41.178Z,94147.81
2022-11-22T18:04:27.076Z,94152.63
2022-11-22T18:07:13.194Z,94156.34
2022-11-22T18:09:59.189Z,94157.00
2022-11-22T18:12:58.636Z,94152.81
2022-11-22T18:16:02.961Z,94175.84
2022-11-22T18:18:56.802Z,94179.63
2022-11-22T18:21:43.863Z,94198.72
2022-11-22T18:24:29.919Z,94212.47
2022-11-22T18:27:16.075Z,94200.56
2022-11-22T18:30:02.270Z,94219.84
2022-11-22T18:32:48.416Z,94198.47
2022-11-22T18:35:34.434Z,94138.66
2022-11-22T18:38:20.239Z,94094.63
2022-11-22T18:41:06.315Z,94069.81
2022-11-22T18:43:54.341Z,94099.63
2022-11-22T18:46:40.488Z,94107.81
2022-11-22T18:49:26.637Z,94123.75
2022-11-22T18:52:15.000Z,94148.69
2022-11-22T18:55:05.374Z,94163.94
2022-11-22T18:57:51.442Z,94159.84
2022-11-22T19:00:37.425Z,94176.22
2022-11-22T19:03:23.468Z,94179.13
2022-11-22T19:06:12.945Z,94170.56
2022-11-22T19:08:59.021Z,94162.63
2022-11-22T19:11:45.357Z,94171.69
2022-11-22T19:14:31.656Z,94189.19
2022-11-22T19:17:21.862Z,94168.81
2022-11-22T19:20:16.718Z,94163.66
2022-11-22T19:23:14.983Z,94151.50
2022-11-22T19:26:06.151Z,94144.47
2022-11-22T19:28:56.524Z,94131.69
2022-11-22T19:31:42.432Z,94124.94
2022-11-22T19:34:29.113Z,94126.28
2022-11-22T19:37:15.259Z,94118.88
2022-11-22T19:40:01.281Z,94118.41
2022-11-22T19:42:47.369Z,94102.91
2022-11-22T19:45:33.707Z,94105.31
2022-11-22T19:48:19.714Z,94088.47
2022-11-22T19:51:14.202Z,94081.84
2022-11-22T19:54:04.896Z,94081.19
2022-11-22T19:56:51.043Z,94098.66
2022-11-22T19:59:37.266Z,94094.19
2022-11-22T20:02:23.443Z,94077.88
2022-11-22T20:05:09.479Z,94089.69
2022-11-22T20:07:55.459Z,94098.31
2022-11-22T20:10:41.315Z,94058.75
2022-11-22T20:13:27.500Z,94043.09
2022-11-22T20:16:23.383Z,94098.28
2022-11-22T20:19:11.418Z,94101.50
2022-11-22T20:21:57.355Z,94089.94
2022-11-22T20:24:43.324Z,94069.44
2022-11-22T20:27:29.465Z,94055.28
2022-11-22T20:30:16.027Z,94063.81
2022-11-22T20:33:02.600Z,94065.88
2022-11-22T20:35:48.912Z,94077.94
2022-11-22T20:38:36.156Z,94087.56
2022-11-22T20:41:24.841Z,94106.28
2022-11-22T20:44:14.375Z,94108.31
2022-11-22T20:47:01.320Z,94138.88
2022-11-22T20:49:47.516Z,94140.50
2022-11-22T20:52:33.495Z,94108.88
2022-11-22T20:55:20.390Z,94110.25
2022-11-22T20:58:06.323Z,94099.88
2022-11-22T21:00:56.358Z,94089.34
2022-11-22T21:03:42.395Z,94078.50
2022-11-22T21:06:28.947Z,94062.66
2022-11-22T21:09:16.229Z,94067.59
2022-11-22T21:12:02.383Z,94087.25
2022-11-22T21:14:52.510Z,94099.97
2022-11-22T21:17:55.767Z,94102.69
2022-11-22T21:20:45.684Z,94137.84
2022-11-22T21:23:31.920Z,94130.09
2022-11-22T21:26:17.829Z,94158.63
2022-11-22T21:29:04.954Z,94164.63
2022-11-22T21:31:51.053Z,94164.97
2022-11-22T21:34:37.140Z,94142.88
2022-11-22T21:37:24.156Z,94139.72
2022-11-22T21:40:10.803Z,94147.72
2022-11-22T21:42:56.905Z,94144.38
2022-11-22T21:45:42.753Z,94135.41
2022-11-22T21:48:29.818Z,94145.03
2022-11-22T21:51:15.779Z,94146.91
2022-11-22T21:54:02.045Z,94153.44
2022-11-22T21:56:48.098Z,94184.28
2022-11-22T21:59:34.476Z,94200.47
2022-11-22T22:02:20.564Z,94188.75
2022-11-22T22:05:06.875Z,94187.72
2022-11-22T22:07:53.412Z,94170.06
2022-11-22T22:10:39.724Z,94178.41
2022-11-22T22:13:26.103Z,94165.44
2022-11-22T22:16:23.755Z,94169.97
2022-11-22T22:19:10.243Z,94150.66
2022-11-22T22:21:56.567Z,94153.59
2022-11-22T22:24:42.696Z,94128.38
2022-11-22T22:27:31.439Z,94141.78
2022-11-22T22:30:17.725Z,94129.06
2022-11-22T22:33:03.999Z,94099.72
2022-11-22T22:35:49.847Z,94123.66
2022-11-22T22:38:35.821Z,94122.03
2022-11-22T22:41:22.335Z,94115.06
2022-11-22T22:44:08.412Z,94113.63
2022-11-22T22:46:54.178Z,94105.41
2022-11-22T22:49:40.150Z,94093.06
2022-11-22T22:52:25.987Z,94079.41
2022-11-22T22:55:12.047Z,94092.34
2022-11-22T22:58:00.495Z,94105.03
2022-11-22T23:00:46.383Z,94106.88
2022-11-22T23:03:32.357Z,94108.56
2022-11-22T23:06:18.430Z,94119.91
2022-11-22T23:09:06.775Z,94107.97
2022-11-22T23:12:10.703Z,94115.81
2022-11-22T23:14:56.959Z,94108.13
2022-11-22T23:17:42.999Z,94105.22
2022-11-22T23:20:28.938Z,94105.47
2022-11-22T23:23:14.819Z,94087.19
2022-11-22T23:26:05.822Z,94092.09
2022-11-22T23:28:53.308Z,94097.44
2022-11-22T23:31:39.759Z,94086.00
2022-11-22T23:34:25.803Z,94071.88
2022-11-22T23:37:11.732Z,94071.78
2022-11-22T23:39:57.684Z,94050.63
2022-11-22T23:42:43.556Z,94047.97
2022-11-22T23:45:29.396Z,94041.38
2022-11-22T23:48:16.245Z,94056.09
2022-11-22T23:51:03.973Z,94052.53
2022-11-22T23:53:54.278Z,94049.63
2022-11-22T23:56:40.472Z,94061.84
2022-11-22T23:59:26.400Z,94037.13
